createdAt,value
2023-08-09T00:00:33.701Z,3.92
2023-08-09T00:03:01.796Z,3.72
2023-08-09T00:05:29.504Z,4.47
2023-08-09T00:07:56.831Z,4.62
2023-08-09T00:10:24.509Z,4.37
2023-08-09T00:12:52.431Z,3.40
2023-08-09T00:15:19.815Z,4.55
2023-08-09T00:17:47.750Z,3.95
2023-08-09T00:20:16.060Z,2.80
2023-08-09T00:22:44.079Z,5.50
2023-08-09T00:25:14.965Z,3.60
2023-08-09T00:27:43.525Z,3.25
2023-08-09T00:30:11.685Z,3.63
2023-08-09T00:32:40.439Z,3.42
2023-08-09T00:35:08.460Z,4.78
2023-08-09T00:37:36.887Z,4.50
2023-08-09T00:40:13.914Z,3.67
2023-08-09T00:42:42.460Z,3.67
2023-08-09T00:45:10.650Z,4.05
2023-08-09T00:47:38.539Z,4.00
2023-08-09T00:50:06.620Z,4.72
2023-08-09T00:52:34.438Z,3.92
2023-08-09T00:55:02.324Z,3.67
2023-08-09T00:57:31.503Z,4.53
2023-08-09T00:59:59.526Z,4.45
2023-08-09T01:02:27.218Z,4.37
2023-08-09T01:04:54.827Z,4.45
2023-08-09T01:07:32.561Z,3.83
2023-08-09T01:10:16.744Z,2.95
2023-08-09T01:12:51.348Z,3.92
2023-08-09T01:15:21.089Z,3.80
2023-08-09T01:17:50.019Z,3.33
2023-08-09T01:20:18.360Z,3.78
2023-08-09T01:22:52.035Z,3.50
2023-08-09T01:25:20.086Z,3.55
2023-08-09T01:27:50.130Z,2.92
2023-08-09T01:30:17.621Z,3.60
2023-08-09T01:32:45.425Z,3.72
2023-08-09T01:35:13.125Z,4.62
2023-08-09T01:37:48.357Z,3.87
2023-08-09T01:40:17.300Z,3.53
2023-08-09T01:42:44.990Z,3.40
2023-08-09T01:45:13.409Z,3.78
2023-08-09T01:47:43.008Z,4.35
2023-08-09T01:50:22.019Z,4.22
2023-08-09T01:52:50.179Z,3.80
2023-08-09T01:55:19.329Z,3.50
2023-08-09T01:57:48.149Z,4.55
2023-08-09T02:00:20.515Z,3.72
2023-08-09T02:02:49.830Z,3.62
2023-08-09T02:05:17.893Z,4.12
2023-08-09T02:07:45.355Z,4.18
2023-08-09T02:10:13.558Z,3.60
2023-08-09T02:12:41.728Z,2.83
2023-08-09T02:15:09.906Z,3.53
2023-08-09T02:17:37.926Z,3.55
2023-08-09T02:20:08.048Z,5.10
2023-08-09T02:22:38.820Z,3.45
2023-08-09T02:25:08.293Z,2.93
2023-08-09T02:27:35.841Z,3.35
2023-08-09T02:30:04.684Z,4.60
2023-08-09T02:32:35.259Z,4.12
2023-08-09T02:35:03.865Z,3.75
2023-08-09T02:37:31.843Z,3.65
2023-08-09T02:40:00.475Z,4.18
2023-08-09T02:42:28.011Z,3.33
2023-08-09T02:44:55.774Z,2.75
2023-08-09T02:47:23.335Z,3.33
2023-08-09T02:49:51.307Z,4.40
2023-08-09T02:52:20.466Z,4.75
2023-08-09T02:54:48.872Z,4.00
2023-08-09T02:57:16.624Z,4.00
2023-08-09T02:59:44.418Z,4.05
2023-08-09T03:02:11.906Z,4.40
2023-08-09T03:04:39.561Z,3.47
2023-08-09T03:07:07.261Z,5.57
2023-08-09T03:09:36.038Z,3.72
2023-08-09T03:12:03.883Z,3.28
2023-08-09T03:14:31.655Z,3.72
2023-08-09T03:16:59.143Z,4.93
2023-08-09T03:19:27.069Z,3.15
2023-08-09T03:21:54.782Z,4.07
2023-08-09T03:24:22.287Z,7.12
2023-08-09T03:26:49.863Z,4.55
2023-08-09T03:29:17.741Z,3.35
2023-08-09T03:31:46.050Z,4.53
2023-08-09T03:34:13.739Z,4.40
2023-08-09T03:36:41.510Z,4.10
2023-08-09T03:39:09.283Z,3.37
2023-08-09T03:41:36.726Z,3.37
2023-08-09T03:44:05.354Z,4.03
2023-08-09T03:46:33.024Z,3.78
2023-08-09T03:49:02.256Z,3.78
2023-08-09T03:51:30.845Z,4.45
2023-08-09T03:53:58.532Z,6.80
2023-08-09T03:56:26.080Z,4.65
2023-08-09T03:58:53.871Z,4.80
2023-08-09T04:01:21.532Z,4.17
2023-08-09T04:03:49.378Z,4.70
2023-08-09T04:06:16.809Z,3.92
2023-08-09T04:08:45.242Z,3.87
2023-08-09T04:11:13.055Z,4.28
2023-08-09T04:13:42.455Z,4.80
2023-08-09T04:16:10.902Z,3.90
2023-08-09T04:18:39.197Z,4.03
2023-08-09T04:21:08.024Z,3.90
2023-08-09T04:23:35.503Z,3.97
2023-08-09T04:26:04.674Z,3.45
2023-08-09T04:28:32.193Z,6.18
2023-08-09T04:30:59.629Z,5.20
2023-08-09T04:33:28.185Z,5.20
2023-08-09T04:35:55.594Z,3.53
2023-08-09T04:38:23.078Z,4.03
2023-08-09T04:40:50.801Z,5.43
2023-08-09T04:43:18.477Z,4.45
2023-08-09T04:45:45.993Z,4.28
2023-08-09T04:48:18.383Z,4.97
2023-08-09T04:50:45.992Z,5.00
2023-08-09T04:53:13.708Z,5.45
2023-08-09T04:55:41.190Z,5.40
2023-08-09T04:58:09.389Z,6.32
2023-08-09T05:00:37.186Z,4.95
2023-08-09T05:03:06.177Z,5.33
2023-08-09T05:05:33.686Z,4.15
2023-08-09T05:08:01.430Z,4.65
2023-08-09T05:10:28.861Z,5.25
2023-08-09T05:12:56.554Z,4.85
2023-08-09T05:15:24.344Z,5.12
2023-08-09T05:17:51.803Z,6.15
2023-08-09T05:20:19.285Z,6.45
2023-08-09T05:22:47.014Z,4.50
2023-08-09T05:25:14.484Z,4.53
2023-08-09T05:27:41.965Z,5.97
2023-08-09T05:30:10.125Z,5.35
2023-08-09T05:32:37.642Z,5.60
2023-08-09T05:35:05.576Z,5.57
2023-08-09T05:37:33.397Z,5.37
2023-08-09T05:40:00.795Z,5.95
2023-08-09T05:42:28.247Z,7.03
2023-08-09T05:44:56.010Z,4.85
2023-08-09T05:47:23.610Z,5.30
2023-08-09T05:49:51.426Z,6.35
2023-08-09T05:52:19.158Z,5.30
2023-08-09T05:54:49.438Z,7.57
2023-08-09T05:57:17.149Z,6.35
2023-08-09T05:59:44.920Z,6.80
2023-08-09T06:02:12.376Z,7.47
2023-08-09T06:04:40.151Z,6.45
2023-08-09T06:07:08.336Z,7.30
2023-08-09T06:09:35.785Z,6.82
2023-08-09T06:12:06.887Z,6.40
2023-08-09T06:14:35.015Z,6.40
2023-08-09T06:17:03.347Z,5.68
2023-08-09T06:19:31.241Z,4.85
2023-08-09T06:21:58.935Z,6.35
2023-08-09T06:24:26.635Z,7.90
2023-08-09T06:26:55.589Z,5.12
2023-08-09T06:29:23.101Z,4.65
2023-08-09T06:31:51.641Z,6.43
2023-08-09T06:34:19.360Z,4.37
2023-08-09T06:36:46.864Z,4.57
2023-08-09T06:39:14.603Z,5.32
2023-08-09T06:41:42.080Z,4.03
2023-08-09T06:44:09.520Z,5.78
2023-08-09T06:46:38.604Z,5.33
2023-08-09T06:49:06.097Z,7.47
2023-08-09T06:51:33.550Z,5.15
2023-08-09T06:54:01.220Z,7.90
2023-08-09T06:56:28.901Z,4.85
2023-08-09T06:58:56.702Z,4.72
2023-08-09T07:01:24.433Z,7.62
2023-08-09T07:03:52.069Z,5.63
2023-08-09T07:06:19.836Z,6.40
2023-08-09T07:08:47.608Z,6.18
2023-08-09T07:11:15.879Z,5.10
2023-08-09T07:13:43.337Z,4.30
2023-08-09T07:16:11.019Z,3.20
2023-08-09T07:18:38.692Z,4.40
2023-08-09T07:21:06.214Z,7.05
2023-08-09T07:23:47.292Z,7.85
2023-08-09T07:26:21.330Z,5.50
2023-08-09T07:28:49.093Z,6.50
2023-08-09T07:31:21.837Z,6.62
2023-08-09T07:33:50.231Z,4.95
2023-08-09T07:36:18.221Z,5.80
2023-08-09T07:38:45.677Z,5.25
2023-08-09T07:41:13.801Z,4.90
2023-08-09T07:43:41.254Z,4.15
2023-08-09T07:46:08.795Z,4.90
2023-08-09T07:48:36.559Z,5.05
2023-08-09T07:51:04.256Z,4.18
2023-08-09T07:53:31.976Z,5.00
2023-08-09T07:55:59.708Z,3.53
2023-08-09T07:58:27.183Z,3.75
2023-08-09T08:00:54.636Z,5.43
2023-08-09T08:03:22.328Z,5.05
2023-08-09T08:05:51.242Z,5.15
2023-08-09T08:08:21.220Z,5.28
2023-08-09T08:10:49.007Z,4.43
2023-08-09T08:13:16.823Z,4.05
2023-08-09T08:15:44.732Z,4.07
2023-08-09T08:18:12.900Z,4.82
2023-08-09T08:20:40.304Z,5.32
2023-08-09T08:23:07.872Z,5.22
2023-08-09T08:25:35.681Z,3.85
2023-08-09T08:28:03.289Z,5.05
2023-08-09T08:30:30.860Z,4.90
2023-08-09T08:32:58.654Z,5.45
2023-08-09T08:35:34.998Z,4.50
2023-08-09T08:38:03.684Z,5.28
2023-08-09T08:40:32.437Z,4.00
2023-08-09T08:43:00.457Z,69.53
2023-08-09T08:45:28.229Z,119.00
2023-08-09T08:47:55.674Z,216.60
2023-08-09T08:50:26.401Z,146.37
2023-08-09T08:52:54.690Z,28.17
2023-08-09T08:55:23.255Z,10.40
2023-08-09T08:57:50.689Z,8.17
2023-08-09T09:02:49.272Z,6.12
2023-08-09T09:05:17.990Z,6.33
2023-08-09T09:07:47.763Z,5.60
2023-08-09T09:10:15.262Z,5.10
2023-08-09T09:12:43.157Z,4.37
2023-08-09T09:15:11.037Z,4.93
2023-08-09T09:17:43.303Z,4.70
2023-08-09T09:20:40.765Z,3.53
2023-08-09T09:23:09.164Z,4.07
2023-08-09T09:25:36.921Z,10.70
2023-08-09T09:28:04.659Z,4.70
2023-08-09T09:30:33.504Z,4.97
2023-08-09T09:33:04.435Z,4.70
2023-08-09T09:35:33.608Z,7.07
2023-08-09T09:38:05.224Z,6.87
2023-08-09T09:40:36.198Z,5.62
2023-08-09T09:43:05.721Z,4.45
2023-08-09T09:45:34.294Z,3.53
2023-08-09T09:48:03.320Z,4.60
2023-08-09T09:50:33.111Z,3.62
2023-08-09T09:53:01.075Z,2.03
2023-08-09T09:55:30.128Z,3.60
2023-08-09T09:57:59.290Z,2.12
2023-08-09T10:00:28.902Z,2.40
2023-08-09T10:02:57.852Z,3.20
2023-08-09T10:05:44.722Z,3.57
2023-08-09T10:08:15.295Z,3.65
2023-08-09T10:10:44.953Z,2.25
2023-08-09T10:13:17.277Z,1.60
2023-08-09T10:15:48.501Z,3.05
2023-08-09T10:18:30.384Z,3.62
2023-08-09T10:20:59.751Z,2.55
2023-08-09T10:23:30.218Z,2.83
2023-08-09T10:25:58.141Z,2.37
2023-08-09T10:28:45.675Z,2.97
2023-08-09T10:31:19.278Z,3.75
2023-08-09T10:34:11.692Z,2.03
2023-08-09T10:36:39.476Z,1.75
2023-08-09T10:39:15.754Z,2.05
2023-08-09T10:42:06.467Z,1.80
2023-08-09T10:44:34.296Z,2.47
2023-08-09T10:47:04.922Z,3.95
2023-08-09T10:49:45.965Z,2.90
2023-08-09T10:52:19.239Z,2.50
2023-08-09T10:55:27.550Z,3.37
2023-08-09T10:57:57.219Z,2.17
2023-08-09T11:00:25.939Z,2.62
2023-08-09T11:02:58.174Z,1.87
2023-08-09T11:05:28.563Z,2.30
2023-08-09T11:07:58.202Z,2.77
2023-08-09T11:10:38.878Z,1.87
2023-08-09T11:13:10.589Z,1.83
2023-08-09T11:15:39.182Z,1.07
2023-08-09T11:18:07.451Z,2.78
2023-08-09T11:20:35.592Z,2.55
2023-08-09T11:23:04.807Z,2.67
2023-08-09T11:25:33.474Z,1.57
2023-08-09T11:28:04.974Z,1.65
2023-08-09T11:30:33.953Z,2.00
2023-08-09T11:33:06.713Z,2.13
2023-08-09T11:35:46.487Z,2.95
2023-08-09T11:38:16.577Z,1.45
2023-08-09T11:40:52.925Z,2.30
2023-08-09T11:43:21.877Z,3.28
2023-08-09T11:45:56.529Z,2.17
2023-08-09T11:48:32.804Z,1.92
2023-08-09T11:51:23.850Z,2.42
2023-08-09T11:53:51.976Z,2.67
2023-08-09T11:56:21.391Z,2.83
2023-08-09T11:58:57.014Z,2.70
2023-08-09T12:01:29.482Z,1.80
2023-08-09T12:03:59.511Z,2.07
2023-08-09T12:06:43.844Z,2.43
2023-08-09T12:09:27.920Z,2.03
2023-08-09T12:11:55.653Z,1.90
2023-08-09T12:14:23.789Z,1.83
2023-08-09T12:16:51.333Z,2.60
2023-08-09T12:19:18.794Z,2.15
2023-08-09T12:21:46.550Z,2.85
2023-08-09T12:24:15.002Z,1.90
2023-08-09T12:26:43.040Z,2.87
2023-08-09T12:29:11.033Z,3.20
2023-08-09T12:31:39.406Z,3.55
2023-08-09T12:34:09.363Z,2.83
2023-08-09T12:36:37.115Z,4.40
2023-08-09T12:39:05.162Z,2.70
2023-08-09T12:41:32.586Z,2.30
2023-08-09T12:44:00.262Z,2.20
2023-08-09T12:46:28.052Z,3.30
2023-08-09T12:48:55.582Z,2.37
2023-08-09T12:51:23.568Z,2.70
2023-08-09T12:53:51.050Z,1.92
2023-08-09T12:56:18.775Z,3.40
2023-08-09T12:58:46.588Z,2.23
2023-08-09T13:01:15.469Z,3.03
2023-08-09T13:03:42.989Z,2.20
2023-08-09T13:06:11.528Z,2.17
2023-08-09T13:08:38.986Z,2.40
2023-08-09T13:11:06.612Z,3.00
2023-08-09T13:13:34.440Z,2.70
2023-08-09T13:16:03.343Z,2.90
2023-08-09T13:18:31.284Z,3.83
2023-08-09T13:20:59.396Z,2.62
2023-08-09T13:23:26.829Z,3.58
2023-08-09T13:25:55.124Z,2.67
2023-08-09T13:28:23.081Z,2.45
2023-08-09T13:30:50.626Z,1.83
2023-08-09T13:33:18.309Z,1.83
2023-08-09T13:35:46.622Z,2.45
2023-08-09T13:38:32.932Z,2.95
2023-08-09T13:41:00.982Z,3.58
2023-08-09T13:43:28.678Z,2.67
2023-08-09T13:45:56.193Z,1.60
2023-08-09T13:48:24.149Z,3.33
2023-08-09T13:50:51.921Z,2.77
2023-08-09T13:53:19.650Z,2.87
2023-08-09T13:55:47.721Z,2.83
2023-08-09T13:58:16.560Z,2.33
2023-08-09T14:00:44.058Z,2.33
2023-08-09T14:03:12.526Z,2.75
2023-08-09T14:05:40.154Z,2.40
2023-08-09T14:08:08.789Z,1.58
2023-08-09T14:10:36.524Z,2.35
2023-08-09T14:13:04.110Z,3.28
2023-08-09T14:15:31.931Z,2.20
2023-08-09T14:18:00.099Z,2.30
2023-08-09T14:20:27.845Z,1.58
2023-08-09T14:22:55.431Z,2.78
2023-08-09T14:25:27.236Z,3.95
2023-08-09T14:27:54.794Z,3.03
2023-08-09T14:30:22.577Z,2.08
2023-08-09T14:32:51.015Z,2.55
2023-08-09T14:35:21.338Z,4.00
2023-08-09T14:37:49.310Z,3.33
2023-08-09T14:40:17.219Z,2.92
2023-08-09T14:42:45.169Z,3.57
2023-08-09T14:45:13.237Z,2.65
2023-08-09T14:47:41.696Z,2.37
2023-08-09T14:50:10.101Z,2.90
2023-08-09T14:52:38.434Z,3.45
2023-08-09T14:55:08.985Z,2.45
2023-08-09T14:57:37.756Z,3.53
2023-08-09T15:00:11.052Z,2.25
2023-08-09T15:02:41.121Z,3.55
2023-08-09T15:05:10.601Z,3.45
2023-08-09T15:07:38.318Z,2.80
2023-08-09T15:10:07.341Z,3.23
2023-08-09T15:12:35.992Z,3.83
2023-08-09T15:15:05.651Z,4.00
2023-08-09T15:17:34.809Z,3.33
2023-08-09T15:20:03.529Z,2.43
2023-08-09T15:22:31.140Z,2.60
2023-08-09T15:25:00.945Z,3.53
2023-08-09T15:27:28.905Z,3.10
2023-08-09T15:29:57.363Z,3.10
2023-08-09T15:32:25.268Z,2.95
2023-08-09T15:34:53.151Z,3.30
2023-08-09T15:37:20.796Z,3.50
2023-08-09T15:39:48.713Z,3.00
2023-08-09T15:42:18.765Z,4.47
2023-08-09T15:44:49.410Z,4.45
2023-08-09T15:47:19.772Z,3.10
2023-08-09T15:49:48.925Z,4.03
2023-08-09T15:52:19.465Z,3.47
2023-08-09T15:54:47.319Z,2.50
2023-08-09T15:57:15.567Z,3.28
2023-08-09T15:59:46.790Z,3.42
2023-08-09T16:02:15.388Z,2.35
2023-08-09T16:04:43.825Z,2.75
2023-08-09T16:07:13.141Z,3.78
2023-08-09T16:09:41.334Z,3.70
2023-08-09T16:12:11.913Z,4.00
2023-08-09T16:14:40.398Z,2.90
2023-08-09T16:17:09.117Z,3.58
2023-08-09T16:19:37.952Z,3.92
2023-08-09T16:22:06.165Z,3.65
2023-08-09T16:24:33.949Z,4.25
2023-08-09T16:27:02.529Z,3.72
2023-08-09T16:29:30.275Z,3.63
2023-08-09T16:31:57.804Z,4.12
2023-08-09T16:34:25.782Z,4.17
2023-08-09T16:36:53.443Z,3.45
2023-08-09T16:39:21.431Z,5.47
2023-08-09T16:41:49.192Z,4.05
2023-08-09T16:44:16.675Z,5.30
2023-08-09T16:46:44.414Z,3.53
2023-08-09T16:49:12.378Z,4.37
2023-08-09T16:51:39.922Z,3.53
2023-08-09T16:54:08.102Z,4.25
2023-08-09T16:56:36.677Z,3.45
2023-08-09T16:59:04.577Z,5.03
2023-08-09T17:01:32.483Z,5.07
2023-08-09T17:04:00.491Z,3.97
2023-08-09T17:06:29.018Z,3.60
2023-08-09T17:08:56.741Z,3.30
2023-08-09T17:11:25.224Z,3.65
2023-08-09T17:13:54.451Z,5.20
2023-08-09T17:16:22.273Z,5.33
2023-08-09T17:18:51.310Z,6.87
2023-08-09T17:21:19.565Z,5.03
2023-08-09T17:23:48.217Z,5.57
2023-08-09T17:26:16.376Z,7.50
2023-08-09T17:28:44.348Z,3.85
2023-08-09T17:31:12.798Z,5.00
2023-08-09T17:33:41.605Z,5.50
2023-08-09T17:36:12.652Z,4.17
2023-08-09T17:38:42.639Z,4.15
2023-08-09T17:41:10.754Z,6.47
2023-08-09T17:43:40.385Z,4.40
2023-08-09T17:46:08.583Z,2.87
2023-08-09T17:48:36.789Z,4.50
2023-08-09T17:51:06.661Z,4.25
2023-08-09T17:53:35.905Z,4.03
2023-08-09T17:56:04.828Z,3.70
2023-08-09T17:58:32.549Z,4.05
2023-08-09T18:01:00.879Z,3.55
2023-08-09T18:03:28.821Z,4.40
2023-08-09T18:05:56.940Z,4.60
2023-08-09T18:08:26.506Z,8.05
2023-08-09T18:10:56.874Z,5.40
2023-08-09T18:13:25.328Z,3.90
2023-08-09T18:15:53.288Z,5.12
2023-08-09T18:18:22.296Z,5.78
2023-08-09T18:20:51.710Z,3.72
2023-08-09T18:23:25.912Z,3.28
2023-08-09T18:25:57.431Z,4.72
2023-08-09T18:28:26.631Z,5.67
2023-08-09T18:30:54.354Z,5.05
2023-08-09T18:33:23.378Z,3.15
2023-08-09T18:35:53.599Z,4.17
2023-08-09T18:38:23.363Z,5.37
2023-08-09T18:40:53.434Z,4.87
2023-08-09T18:43:23.152Z,3.78
2023-08-09T18:45:51.557Z,3.65
2023-08-09T18:48:19.902Z,4.40
2023-08-09T18:50:49.310Z,3.78
2023-08-09T18:53:18.785Z,6.32
2023-08-09T18:55:48.244Z,4.53
2023-08-09T18:58:17.240Z,5.00
2023-08-09T19:00:46.327Z,4.32
2023-08-09T19:03:14.617Z,4.22
2023-08-09T19:05:44.077Z,4.00
2023-08-09T19:08:12.732Z,3.75
2023-08-09T19:10:43.159Z,3.33
2023-08-09T19:13:11.684Z,4.72
2023-08-09T19:15:41.272Z,4.60
2023-08-09T19:18:09.409Z,4.05
2023-08-09T19:20:37.761Z,4.85
2023-08-09T19:23:07.542Z,5.03
2023-08-09T19:25:36.246Z,4.12
2023-08-09T19:28:05.879Z,4.00
2023-08-09T19:30:35.712Z,4.50
2023-08-09T19:33:05.092Z,4.20
2023-08-09T19:35:35.436Z,5.25
2023-08-09T19:38:05.554Z,4.65
2023-08-09T19:40:34.098Z,4.12
2023-08-09T19:43:02.906Z,3.75
2023-08-09T19:45:31.424Z,6.10
2023-08-09T19:48:01.490Z,5.47
2023-08-09T19:50:29.913Z,5.57
2023-08-09T19:52:58.093Z,5.90
2023-08-09T19:55:26.442Z,5.93
2023-08-09T19:57:54.760Z,6.78
2023-08-09T20:00:28.715Z,7.43
2023-08-09T20:02:57.352Z,5.47
2023-08-09T20:05:26.104Z,6.20
2023-08-09T20:07:54.955Z,6.10
2023-08-09T20:10:23.372Z,7.12
2023-08-09T20:12:51.592Z,8.45
2023-08-09T20:15:21.176Z,7.28
2023-08-09T20:17:49.480Z,6.18
2023-08-09T20:20:24.292Z,6.90
2023-08-09T20:22:54.096Z,6.00
2023-08-09T20:25:22.975Z,7.33
2023-08-09T20:27:52.425Z,7.05
2023-08-09T20:30:20.923Z,5.68
2023-08-09T20:32:49.021Z,7.03
2023-08-09T20:35:17.014Z,5.40
2023-08-09T20:37:44.688Z,6.20
2023-08-09T20:40:13.122Z,5.65
2023-08-09T20:42:42.251Z,6.10
2023-08-09T20:45:11.460Z,6.15
2023-08-09T20:47:41.344Z,7.27
2023-08-09T20:50:09.623Z,5.53
2023-08-09T20:52:39.536Z,5.70
2023-08-09T20:55:08.501Z,6.10
2023-08-09T20:57:36.303Z,6.22
2023-08-09T21:00:05.663Z,5.60
2023-08-09T21:02:33.420Z,5.93
2023-08-09T21:05:00.834Z,6.00
2023-08-09T21:07:28.253Z,5.22
2023-08-09T21:09:56.422Z,5.53
2023-08-09T21:12:23.801Z,6.33
2023-08-09T21:14:51.235Z,6.60
2023-08-09T21:17:18.860Z,6.70
2023-08-09T21:19:46.273Z,6.60
2023-08-09T21:22:15.306Z,6.20
2023-08-09T21:27:31.760Z,6.60
2023-08-09T21:30:00.700Z,6.85
2023-08-09T21:32:28.322Z,6.57
2023-08-09T21:34:55.792Z,6.40
2023-08-09T21:37:23.564Z,6.45
2023-08-09T21:39:51.131Z,5.80
2023-08-09T21:42:18.591Z,7.70
2023-08-09T21:44:46.377Z,7.07
2023-08-09T21:47:13.811Z,5.97
2023-08-09T21:49:44.549Z,7.47
2023-08-09T21:52:12.242Z,6.32
2023-08-09T21:54:39.661Z,6.12
2023-08-09T21:57:07.132Z,6.20
2023-08-09T21:59:34.869Z,6.40
2023-08-09T22:02:17.885Z,5.93
2023-08-09T22:04:54.491Z,8.35
2023-08-09T22:07:21.929Z,6.53
2023-08-09T22:09:49.336Z,5.05
2023-08-09T22:12:17.003Z,7.07
2023-08-09T22:14:44.386Z,6.85
2023-08-09T22:17:11.908Z,4.97
2023-08-09T22:19:39.700Z,6.43
2023-08-09T22:24:37.462Z,6.90
2023-08-09T22:27:05.175Z,4.80
2023-08-09T22:29:32.720Z,5.82
2023-08-09T22:32:00.544Z,5.65
2023-08-09T22:34:28.277Z,5.15
2023-08-09T22:36:56.156Z,5.57
2023-08-09T22:39:23.827Z,5.43
2023-08-09T22:41:51.624Z,4.80
2023-08-09T22:44:19.001Z,4.70
2023-08-09T22:46:46.616Z,5.28
2023-08-09T22:49:14.367Z,5.45
2023-08-09T22:51:43.076Z,5.15
2023-08-09T22:54:10.924Z,5.53
2023-08-09T22:56:38.670Z,5.37
2023-08-09T22:59:06.355Z,4.62
2023-08-09T23:01:34.934Z,6.05
2023-08-09T23:04:03.134Z,5.87
2023-08-09T23:06:30.579Z,4.37
2023-08-09T23:08:58.089Z,5.28
2023-08-09T23:11:26.224Z,4.53
2023-08-09T23:13:53.632Z,5.25
2023-08-09T23:16:21.007Z,4.90
2023-08-09T23:18:48.877Z,4.25
2023-08-09T23:21:16.370Z,4.80
2023-08-09T23:23:43.786Z,4.87
2023-08-09T23:26:12.634Z,5.43
2023-08-09T23:28:40.062Z,4.12
2023-08-09T23:31:07.500Z,5.05
2023-08-09T23:33:35.317Z,4.60
2023-08-09T23:36:03.849Z,3.95
2023-08-09T23:38:31.228Z,4.80
2023-08-09T23:40:58.999Z,4.30
2023-08-09T23:43:26.410Z,4.50
2023-08-09T23:45:53.825Z,4.63
2023-08-09T23:48:21.480Z,4.83
2023-08-09T23:50:49.244Z,3.70
2023-08-09T23:53:16.681Z,5.25
2023-08-09T23:55:44.355Z,4.93
2023-08-09T23:58:11.750Z,4.47
